Kuna, ID (83634)

3:18 PM MST on December 04, 2016 (GMT -0700)
Sutter's Mill | | Change Station

Elev 2677 ft 43.49 °N, 116.44 °W | Updated 3 minutes ago

Haze
Haze
43.3 °F
Feels Like 41 °F
N
3.8
Wind Variable Wind from SE
Gusts 6.8 mph

Today
High -- | Low -- °F
--% Chance of Precip.
Yesterday
High -- | Low -- °F
Precip. -- in
Pressure 29.80 in
Visibility 5.0 miles
Clouds Few 3800 ft
Scattered Clouds 4700 ft
Mostly Cloudy 5500 ft
Windchill 41 °F
Dew Point 37 °F
Humidity 79%
Rainfall 0.00 in
Snow Depth Not available.
8:02 AM 5:09 PM
Waxing Crescent, 26% visible
METAR KMAN 042215Z AUTO VRB03KT 5SM HZ FEW038 SCT047 BKN055 07/03 A2980 RMK A01
Pressure 29.80 in
Visibility 5.0 miles
Clouds Few 3800 ft
Scattered Clouds 4700 ft
Mostly Cloudy 5500 ft
Windchill 41 °F
Dew Point 37 °F
Humidity 79%
Rainfall 0.00 in
Snow Depth Not available.
8:02 AM 5:09 PM
Waxing Crescent, 26% visible
METAR KMAN 042215Z AUTO VRB03KT 5SM HZ FEW038 SCT047 BKN055 07/03 A2980 RMK A01

10-Day Weather Forecast

Almanac

Astronomy

Dec. 04, 2016 Rise Set
Actual Time
Civil Twilight
Nautical Twilight
Astronomical Twilight
Moon
Length of Visible Light
Length of Day
Tomorrow will be .
, % of the Moon is Illuminated

Today's Extremes

State Highs State Lows

Community

WunderPhotos

Upload Photos

1,955,683 photos uploaded!

WunderBlog® & News

Nearby

Air Quality

  Air Quality AQ Index Pollutant
Not available.

Snow Depth

Station Depth Elevation

Earthquake Activity

City Distance Mag. Time & Date
Minimum magnitude displayed is 2.5.

Coastal Water Temperatures

Place Temperature

Stations

Nearby Weather Stations

Station Location Temp. Windchill Dew Point Humidity Wind Precip. Elev Updated Type
                   

Watches & Warnings

There are currently no watches in effect.